Latest Weather Observations for Walpole North

IDW60801

Issued at 4:33 pm WST Wednesday 7 December 2016 (issued every 30 minutes, with the page automatically refreshed every 10 minutes)

About weather observations | Map of weather stations | Latest weather observations for WA | Other Formats
Station Details ID: 009998 Name: NORTH WALPOLE Lat: -34.95 Lon: 116.72 Height: 73.0 m
Data from the previous 72 hours. | See also: Recent months at Walpole North
Date/Time
WST
Temp
°C
App
Temp
°C
Dew
Point
°C
Rel
Hum
%
Delta-T
°C
Wind Press
QNH
hPa
Press
MSL
hPa
Rain since
9am
mm
Dir  Spd
km/h
Gust
km/h
Spd
kts
Gust
kts
07/04:30pm 16.8 14.2 9.5 62 3.8 S 13 24 7 13 1019.3 1019.2 0.0
07/04:00pm 17.2 13.3 9.4 60 4.1 SSW 20 30 11 16 1019.1 1019.0 0.0
07/03:30pm 17.5 14.5 9.4 59 4.2 SSW 15 30 8 16 1019.0 1018.9 0.0
07/03:00pm 18.3 14.8 8.6 53 5.0 S 17 32 9 17 1018.8 1018.7 0.0
07/02:30pm 18.9 16.2 8.8 52 5.3 SSW 13 26 7 14 1018.5 1018.4 0.0
07/02:00pm 18.5 15.1 9.0 54 5.0 S 17 32 9 17 1018.4 1018.3 0.0
07/01:30pm 19.1 15.7 9.3 53 5.2 SSW 17 32 9 17 1018.1 1018.0 0.0
07/01:00pm 17.8 12.9 8.6 55 4.7 SSW 24 35 13 19 1018.0 1017.9 0.0
07/12:30pm 18.4 13.7 9.2 55 4.8 SSW 24 39 13 21 1017.9 1017.8 0.0
07/12:00pm 19.0 14.1 8.6 51 5.4 SSW 24 39 13 21 1017.8 1017.7 0.0
07/11:30am 18.2 13.4 8.7 54 4.9 SSW 24 39 13 21 1017.6 1017.5 0.0
07/11:00am 17.7 12.9 7.2 50 5.3 SW 22 37 12 20 1017.4 1017.3 0.0
07/10:30am 17.4 12.9 8.5 56 4.6 SW 22 32 12 17 1017.2 1017.1 0.0
07/10:00am 17.4 13.1 7.7 53 4.9 SW 20 37 11 20 1016.9 1016.8 0.0
07/09:30am 16.8 11.6 7.2 53 4.8 SW 24 41 13 22 1016.6 1016.5 0.0
07/09:00am 16.1 11.2 8.3 60 4.0 SW 24 35 13 19 1016.2 1016.1 0.6
07/08:45am 18.0 12.6 9.6 58 4.4 SSW 28 46 15 25 1016.1 1016.0 0.6
07/08:30am 16.1 11.4 7.8 58 4.2 SW 22 46 12 25 1015.9 1015.8 0.6
07/08:00am 15.6 10.1 7.4 58 4.1 SW 26 39 14 21 1015.5 1015.4 0.6
07/07:30am 15.6 9.4 6.1 53 4.6 WSW 28 46 15 25 1015.0 1014.9 0.6
07/07:21am 15.6 9.6 7.1 57 4.2 SW 28 48 15 26 1015.0 1014.9 0.6
07/07:00am 14.7 9.2 7.7 63 3.5 SW 26 48 14 26 1014.6 1014.5 0.6
07/06:36am 14.9 9.3 8.6 66 3.2 SW 28 48 15 26 1014.2 1014.1 0.6
07/06:30am 14.9 10.0 8.6 66 3.2 SW 24 39 13 21 1014.0 1013.9 0.6
07/06:00am 14.8 10.6 9.8 72 2.6 WSW 22 39 12 21 1013.1 1012.9 0.4
07/05:30am 14.0 10.2 11.2 83 1.5 WSW 22 41 12 22 1012.6 1012.4 0.4
07/05:00am 14.4 10.4 10.6 78 2.0 WSW 22 44 12 24 1012.1 1011.9 0.2
07/04:30am 14.8 8.9 10.4 75 2.3 WSW 32 54 17 29 1011.7 1011.5 0.2
07/04:24am 14.9 9.9 11.1 78 2.0 WSW 28 50 15 27 1011.6 1011.4 0.2
07/04:00am 15.2 11.8 11.4 78 2.0 W 20 35 11 19 1011.0 1010.8 0.2
07/03:30am 15.4 12.5 12.3 82 1.7 WSW 19 35 10 19 1010.6 1010.4 0.2
07/03:00am 15.0 12.1 13.0 88 1.1 WSW 20 35 11 19 1010.4 1010.2 0.2
07/02:30am 15.5 12.0 13.5 88 1.1 W 24 39 13 21 1010.2 1010.0 0.2
07/02:00am 16.7 13.5 11.4 71 2.9 WNW 19 28 10 15 1009.9 1009.7 0.0
07/01:30am 16.3 13.2 12.1 76 2.3 WNW 20 28 11 15 1009.9 1009.7 0.0
07/01:00am 16.1 13.4 13.0 82 1.7 WNW 19 32 10 17 1010.4 1010.2 0.0
07/12:30am 15.7 13.1 13.2 85 1.4 NW 19 26 10 14 1010.5 1010.3 0.0
07/12:00am 15.4 12.9 13.4 88 1.1 WNW 19 28 10 15 1010.8 1010.6 0.0
 
Date/Time
WST
Temp
°C
App
Temp
°C
Dew
Point
°C
Rel
Hum
%
Delta-T
°C
Wind Press
QNH
hPa
Press
MSL
hPa
Rain since
9am
mm
Dir  Spd
km/h
Gust
km/h
Spd
kts
Gust
kts
06/11:30pm 15.2 13.1 13.7 91 0.8 WNW 17 24 9 13 1011.1 1010.9 0.0
06/11:00pm 16.5 14.1 12.8 79 2.1 NW 17 26 9 14 1011.2 1011.0 0.0
06/10:30pm 16.3 13.6 12.8 80 1.9 NW 19 28 10 15 1011.6 1011.4 0.0
06/10:00pm 16.4 14.0 12.8 79 2.0 WNW 17 24 9 13 1011.8 1011.6 0.0
06/09:30pm 16.5 13.4 12.3 76 2.3 WNW 20 28 11 15 1011.9 1011.7 0.0
06/09:00pm 16.8 13.8 11.9 73 2.7 NW 19 28 10 15 1012.0 1011.8 0.0
06/08:30pm 17.0 13.7 11.7 71 2.9 WNW 20 32 11 17 1012.0 1011.8 0.0
06/08:00pm 17.2 13.9 11.7 70 3.0 WNW 20 33 11 18 1012.3 1012.1 0.0
06/07:30pm 17.4 14.2 11.9 70 3.0 WNW 20 32 11 17 1012.2 1012.0 0.0
06/07:00pm 17.7 14.1 11.9 69 3.2 WNW 22 37 12 20 1012.1 1011.9 0.0
06/06:30pm 17.9 14.4 12.1 69 3.2 WNW 22 35 12 19 1012.2 1012.0 0.0
06/06:00pm 18.1 14.7 12.5 70 3.1 WNW 22 33 12 18 1012.2 1012.0 0.0
06/05:30pm 18.5 14.4 11.6 64 3.8 WNW 24 39 13 21 1012.0 1011.8 0.0
06/05:08pm 18.8 14.1 11.9 64 3.8 W 28 48 15 26 1011.9 1011.7 0.0
06/05:00pm 19.5 15.7 12.3 63 4.0 WNW 24 39 13 21 1011.8 1011.6 0.0
06/04:40pm 20.2 15.5 11.9 59 4.6 W 28 46 15 25 1011.8 1011.6 0.0
06/04:30pm 20.2 15.4 11.7 58 4.7 W 28 44 15 24 1011.8 1011.6 0.0
06/04:00pm 20.6 16.4 12.3 59 4.7 W 26 43 14 23 1011.8 1011.6 0.0
06/03:30pm 21.2 17.3 12.1 56 5.1 WNW 24 43 13 23 1012.0 1011.8 0.0
06/03:00pm 21.4 17.3 12.8 58 4.9 WNW 26 43 14 23 1012.4 1012.2 0.0
06/02:30pm 21.7 18.3 12.5 56 5.2 W 22 39 12 21 1012.9 1012.7 0.0
06/02:00pm 21.3 18.1 11.9 55 5.3 WNW 20 33 11 18 1013.1 1012.9 0.0
06/01:30pm 21.5 17.9 11.8 54 5.4 W 22 35 12 19 1013.5 1013.4 0.0
06/01:00pm 21.1 16.8 10.9 52 5.6 W 24 37 13 20 1013.8 1013.7 0.0
06/12:30pm 20.7 16.9 11.3 55 5.2 W 22 35 12 19 1014.3 1014.2 0.0
06/12:00pm 20.9 17.2 11.5 55 5.2 W 22 37 12 20 1014.7 1014.6 0.0
06/11:30am 19.8 16.5 11.0 57 4.8 W 19 33 10 18 1014.9 1014.8 0.0
06/11:00am 20.2 16.9 11.7 58 4.7 W 20 35 11 19 1015.0 1014.9 0.0
06/10:30am 19.8 16.6 11.3 58 4.7 W 19 30 10 16 1015.3 1015.2 0.0
06/10:00am 18.2 15.1 10.3 60 4.2 W 17 24 9 13 1015.6 1015.5 0.0
06/09:30am 19.1 15.2 10.9 59 4.5 WNW 22 35 12 19 1015.8 1015.7 0.0
06/09:00am 18.2 15.4 11.3 64 3.8 WNW 17 26 9 14 1016.0 1015.9 0.8
06/08:30am 17.2 14.9 10.6 65 3.5 WNW 13 26 7 14 1016.4 1016.3 0.8
06/08:00am 16.6 13.8 11.3 71 2.9 WNW 17 28 9 15 1016.1 1016.0 0.8
06/07:30am 15.7 13.3 11.5 76 2.3 NW 15 20 8 11 1016.1 1016.0 0.8
06/07:00am 13.9 11.9 11.4 85 1.3 WNW 13 19 7 10 1015.9 1015.8 0.8
06/06:30am 12.5 11.5 12.3 99 0.1 WNW 9 13 5 7 1015.9 1015.8 0.8
06/06:00am 11.5 10.6 11.3 99 0.1 WNW 7 11 4 6 1015.9 1015.8 0.8
06/05:30am 10.5 8.9 10.3 99 0.1 NW 9 13 5 7 1015.7 1015.6 0.8
06/05:00am 9.8 8.4 9.7 99 0.1 NW 7 9 4 5 1016.0 1015.9 0.8
06/04:30am 9.6 8.4 9.5 99 0.0 NW 6 6 3 3 1015.6 1015.5 0.8
06/04:00am 10.4 9.2 10.2 99 0.1 NW 7 11 4 6 1015.4 1015.3 0.8
06/03:30am 10.6 9.6 10.4 99 0.1 NW 6 7 3 4 1015.1 1015.0 0.8
06/03:00am 10.4 9.4 10.2 99 0.1 NW 6 7 3 4 1015.2 1015.1 0.8
06/02:30am 11.1 10.3 10.9 99 0.1 NW 6 7 3 4 1015.2 1015.1 0.6
06/02:00am 11.0 10.1 10.8 99 0.1 NW 6 9 3 5 1015.2 1015.1 0.6
06/01:30am 11.5 11.5 11.3 99 0.1 N 2 7 1 4 1015.1 1015.0 0.6
06/01:00am 11.8 11.0 11.6 99 0.1 NNW 7 11 4 6 1015.4 1015.3 0.6
06/12:30am 11.9 11.2 11.4 97 0.3 NW 6 7 3 4 1015.8 1015.7 0.6
06/12:00am 12.6 11.8 11.8 95 0.4 NNW 7 13 4 7 1015.8 1015.7 0.6
 
Date/Time
WST
Temp
°C
App
Temp
°C
Dew
Point
°C
Rel
Hum
%
Delta-T
°C
Wind Press
QNH
hPa
Press
MSL
hPa
Rain since
9am
mm
Dir  Spd
km/h
Gust
km/h
Spd
kts
Gust
kts
05/11:30pm 12.8 12.2 11.7 93 0.6 NW 6 9 3 5 1016.0 1015.9 0.6
05/11:00pm 12.9 12.2 11.3 90 0.8 NW 6 7 3 4 1016.0 1015.9 0.6
05/10:30pm 13.0 12.2 11.1 88 1.0 NW 6 7 3 4 1016.1 1016.0 0.6
05/10:00pm 13.8 12.3 11.8 88 1.1 NW 11 15 6 8 1016.1 1016.0 0.6
05/09:30pm 13.6 12.9 11.3 86 1.2 WSW 6 7 3 4 1016.3 1016.2 0.6
05/09:00pm 13.6 13.6 11.0 84 1.4 WSW 2 6 1 3 1016.2 1016.1 0.6
05/08:30pm 14.3 14.4 11.6 84 1.5 WSW 2 4 1 2 1016.1 1016.0 0.6
05/08:00pm 14.6 13.6 11.0 79 1.9 WSW 7 9 4 5 1016.0 1015.9 0.6
05/07:30pm 14.9 13.9 11.1 78 2.0 WSW 7 9 4 5 1015.9 1015.8 0.6
05/07:00pm 15.3 14.0 11.1 76 2.2 WSW 9 15 5 8 1015.7 1015.6 0.6
05/06:30pm 16.0 14.9 12.0 77 2.2 SW 9 15 5 8 1015.3 1015.2 0.6
05/06:00pm 16.2 13.5 11.8 75 2.4 SW 17 24 9 13 1015.2 1015.1 0.6
05/05:30pm 17.0 14.9 12.5 75 2.5 SW 15 26 8 14 1014.8 1014.7 0.6
05/05:00pm 16.8 14.2 11.9 73 2.7 WSW 17 32 9 17 1014.5 1014.4 0.6
05/04:30pm 16.6 13.7 12.2 75 2.4 WSW 19 33 10 18 1014.3 1014.2 0.6
05/04:00pm 16.6 15.3 14.8 89 1.0 WSW 15 22 8 12 1014.3 1014.2 0.6
05/03:30pm 15.9 15.6 14.3 90 0.9 W 9 17 5 9 1014.3 1014.2 0.6
05/03:00pm 17.3 13.6 11.6 69 3.1 WSW 22 39 12 21 1014.0 1013.9 0.0
05/02:30pm 21.0 17.0 11.9 56 5.1 W 24 39 13 21 1013.5 1013.4 0.0
05/02:00pm 20.6 17.6 12.6 60 4.5 W 20 35 11 19 1013.2 1013.1 0.0
05/01:30pm 20.1 15.8 10.8 55 5.1 WSW 24 39 13 21 1013.3 1013.2 0.0
05/01:00pm 21.7 18.0 11.4 52 5.7 W 22 41 12 22 1013.1 1012.9 0.0
05/12:30pm 21.3 16.4 11.3 53 5.6 WNW 28 44 15 24 1013.1 1012.9 0.0
05/12:00pm 20.6 16.9 11.5 56 5.1 WNW 22 35 12 19 1013.3 1013.2 0.0
05/11:30am 20.0 15.3 10.7 55 5.1 WNW 26 39 14 21 1013.5 1013.4 0.0
05/11:00am 19.4 15.9 10.1 55 5.0 WNW 19 30 10 16 1013.5 1013.4 0.0
05/10:30am 18.7 15.6 10.3 58 4.5 WNW 17 28 9 15 1013.9 1013.8 0.0
05/10:00am 17.5 13.5 9.2 58 4.3 WNW 20 32 11 17 1014.2 1014.1 0.0
05/09:30am 17.6 13.7 9.5 59 4.3 WNW 20 32 11 17 1014.1 1014.0 0.0
05/09:00am 18.3 15.6 10.2 59 4.3 NW 15 24 8 13 1014.1 1014.0 0.0
05/08:30am 17.0 14.1 9.7 62 3.8 NNW 15 22 8 12 1014.4 1014.3 0.0
05/08:00am 15.8 12.9 9.5 66 3.3 NNW 15 24 8 13 1014.7 1014.6 0.0
05/07:30am 15.2 11.8 9.1 67 3.1 NNW 17 22 9 12 1014.7 1014.6 0.0
05/07:00am 14.4 11.7 9.0 70 2.8 NNW 13 22 7 12 1014.6 1014.5 0.0
05/06:30am 13.1 12.1 9.0 76 2.1 WNW 4 11 2 6 1014.3 1014.2 0.0
05/06:00am 11.5 9.4 8.4 81 1.5 N 9 13 5 7 1014.3 1014.2 0.0
05/05:30am 11.3 9.8 9.0 86 1.1 N 7 13 4 7 1014.2 1014.1 0.0
05/05:00am 8.7 7.8 7.6 93 0.5 SW 2 6 1 3 1014.3 1014.2 0.0
05/04:30am 9.1 7.3 8.0 93 0.5 SW 7 9 4 5 1014.3 1014.2 0.0
05/04:00am 8.7 8.2 7.8 94 0.4 CALM 0 0 0 0 1013.9 1013.8 0.0
05/03:30am 8.8 8.0 8.2 96 0.3 SW 2 7 1 4 1013.7 1013.6 0.0
05/03:00am 8.9 7.4 8.5 97 0.2 SW 6 9 3 5 1013.6 1013.5 0.0
05/02:30am 7.7 5.9 7.0 95 0.3 SW 6 7 3 4 1013.7 1013.6 0.0
05/02:00am 8.3 7.7 7.4 94 0.4 CALM 0 0 0 0 1013.8 1013.7 0.0
05/01:30am 8.7 8.2 7.9 95 0.4 CALM 0 0 0 0 1013.8 1013.7 0.0
05/01:00am 8.9 8.1 8.1 95 0.4 SW 2 7 1 4 1014.2 1014.1 0.0
05/12:30am 8.0 6.5 6.8 92 0.6 SW 4 7 2 4 1014.2 1014.1 0.0
05/12:00am 8.5 6.5 7.1 91 0.7 SW 7 9 4 5 1014.1 1014.0 0.0
 
Date/Time
WST
Temp
°C
App
Temp
°C
Dew
Point
°C
Rel
Hum
%
Delta-T
°C
Wind Press
QNH
hPa
Press
MSL
hPa
Rain since
9am
mm
Dir  Spd
km/h
Gust
km/h
Spd
kts
Gust
kts
04/11:30pm 9.0 8.0 7.5 90 0.7 SW 2 9 1 5 1014.3 1014.2 0.0
04/11:00pm 9.5 8.9 7.3 86 1.0 CALM 0 0 0 0 1014.5 1014.4 0.0
04/10:30pm 10.4 9.9 8.0 85 1.2 CALM 0 0 0 0 1014.7 1014.6 0.0
04/10:00pm 10.9 9.3 8.1 83 1.4 SW 6 7 3 4 1014.9 1014.8 0.0
04/09:30pm 11.0 10.2 8.1 82 1.4 SW 2 7 1 4 1015.1 1015.0 0.0
04/09:00pm 11.3 10.7 7.6 78 1.8 CALM 0 0 0 0 1014.9 1014.8 0.0
04/08:30pm 11.9 11.3 7.6 75 2.1 CALM 0 0 0 0 1014.8 1014.7 0.0
04/08:00pm 12.4 10.1 7.5 72 2.4 SW 9 11 5 6 1014.7 1014.6 0.0
04/07:30pm 13.0 11.6 7.2 68 2.8 SW 4 9 2 5 1014.6 1014.5 0.0
04/07:00pm 14.5 12.5 7.1 61 3.6 SW 7 13 4 7 1014.5 1014.4 0.0
04/06:30pm 16.0 13.3 7.2 56 4.4 SW 11 20 6 11 1014.5 1014.4 0.0
04/06:00pm 16.9 13.0 7.0 52 4.9 SSW 17 22 9 12 1014.3 1014.2 0.0
04/05:30pm 17.6 14.1 7.1 50 5.3 SW 15 26 8 14 1014.2 1014.1 0.0
04/05:00pm 17.8 14.7 7.2 50 5.3 SW 13 20 7 11 1013.8 1013.7 0.0

Other Formats:

Comma delimited format used in spreadsheet applications
http://www.bom.gov.au/fwo/IDW60801/IDW60801.95647.axf

JavaScript Object Notation format (JSON) in row-major order
http://www.bom.gov.au/fwo/IDW60801/IDW60801.95647.json